sensor_id;sensor_type;location;lat;lon;timestamp;temperature;humidity
16643;DHT22;8435;52.184;5.406;2023-12-22T00:01:54;9.90;99.90
16643;DHT22;8435;52.184;5.406;2023-12-22T00:04:22;9.90;99.90
16643;DHT22;8435;52.184;5.406;2023-12-22T00:06:51;9.90;99.90
16643;DHT22;8435;52.184;5.406;2023-12-22T00:09:18;9.90;99.90
16643;DHT22;8435;52.184;5.406;2023-12-22T00:11:45;9.90;99.90
16643;DHT22;8435;52.184;5.406;2023-12-22T00:14:15;9.80;99.90
16643;DHT22;8435;52.184;5.406;2023-12-22T00:16:42;9.70;99.90
16643;DHT22;8435;52.184;5.406;2023-12-22T00:19:09;9.60;99.90
16643;DHT22;8435;52.184;5.406;2023-12-22T00:21:37;9.50;99.90
16643;DHT22;8435;52.184;5.406;2023-12-22T00:24:04;9.40;99.90
16643;DHT22;8435;52.184;5.406;2023-12-22T00:26:31;9.30;99.90
16643;DHT22;8435;52.184;5.406;2023-12-22T00:28:58;9.20;99.90
16643;DHT22;8435;52.184;5.406;2023-12-22T00:31:25;9.10;99.90
16643;DHT22;8435;52.184;5.406;2023-12-22T00:33:54;9.10;99.90
16643;DHT22;8435;52.184;5.406;2023-12-22T00:36:21;9.10;99.90
16643;DHT22;8435;52.184;5.406;2023-12-22T00:38:51;9.00;99.90
16643;DHT22;8435;52.184;5.406;2023-12-22T00:41:18;9.00;99.90
16643;DHT22;8435;52.184;5.406;2023-12-22T00:43:44;9.00;99.90
16643;DHT22;8435;52.184;5.406;2023-12-22T00:46:12;9.00;99.90
16643;DHT22;8435;52.184;5.406;2023-12-22T00:48:39;8.90;99.90
16643;DHT22;8435;52.184;5.406;2023-12-22T00:51:06;8.90;99.90
16643;DHT22;8435;52.184;5.406;2023-12-22T00:53:33;8.90;99.90
16643;DHT22;8435;52.184;5.406;2023-12-22T00:56:01;8.90;99.90
16643;DHT22;8435;52.184;5.406;2023-12-22T00:58:29;8.90;99.90
16643;DHT22;8435;52.184;5.406;2023-12-22T01:00:56;8.90;99.90
16643;DHT22;8435;52.184;5.406;2023-12-22T01:03:23;8.90;99.90
16643;DHT22;8435;52.184;5.406;2023-12-22T01:05:50;8.90;99.90
16643;DHT22;8435;52.184;5.406;2023-12-22T01:08:16;8.90;99.90
16643;DHT22;8435;52.184;5.406;2023-12-22T01:10:43;8.90;99.90
16643;DHT22;8435;52.184;5.406;2023-12-22T01:13:11;8.90;99.90
16643;DHT22;8435;52.184;5.406;2023-12-22T01:15:38;8.90;99.90
16643;DHT22;8435;52.184;5.406;2023-12-22T01:18:05;8.90;99.90
16643;DHT22;8435;52.184;5.406;2023-12-22T01:20:32;8.90;99.90
16643;DHT22;8435;52.184;5.406;2023-12-22T01:22:58;9.00;99.90
16643;DHT22;8435;52.184;5.406;2023-12-22T01:25:28;8.90;99.90
16643;DHT22;8435;52.184;5.406;2023-12-22T01:27:55;9.00;99.90
16643;DHT22;8435;52.184;5.406;2023-12-22T01:30:23;9.00;99.90
16643;DHT22;8435;52.184;5.406;2023-12-22T01:32:50;9.00;99.90
16643;DHT22;8435;52.184;5.406;2023-12-22T01:35:16;9.00;99.90
16643;DHT22;8435;52.184;5.406;2023-12-22T01:37:43;8.90;99.90
16643;DHT22;8435;52.184;5.406;2023-12-22T01:40:12;8.90;99.90
16643;DHT22;8435;52.184;5.406;2023-12-22T01:42:39;8.90;99.90
16643;DHT22;8435;52.184;5.406;2023-12-22T01:45:07;8.90;99.90
16643;DHT22;8435;52.184;5.406;2023-12-22T01:47:35;8.80;99.90
16643;DHT22;8435;52.184;5.406;2023-12-22T01:50:03;8.80;99.90
16643;DHT22;8435;52.184;5.406;2023-12-22T01:52:30;8.80;99.90
16643;DHT22;8435;52.184;5.406;2023-12-22T01:54:56;8.80;99.90
16643;DHT22;8435;52.184;5.406;2023-12-22T01:57:23;8.80;99.90
16643;DHT22;8435;52.184;5.406;2023-12-22T01:59:50;8.80;99.90
16643;DHT22;8435;52.184;5.406;2023-12-22T02:02:19;8.80;99.90
16643;DHT22;8435;52.184;5.406;2023-12-22T02:04:49;8.80;99.90
16643;DHT22;8435;52.184;5.406;2023-12-22T02:07:16;8.80;99.90
16643;DHT22;8435;52.184;5.406;2023-12-22T02:09:43;8.80;99.90
16643;DHT22;8435;52.184;5.406;2023-12-22T02:12:10;8.80;99.90
16643;DHT22;8435;52.184;5.406;2023-12-22T02:14:36;8.80;99.90
16643;DHT22;8435;52.184;5.406;2023-12-22T02:17:11;8.90;99.90
16643;DHT22;8435;52.184;5.406;2023-12-22T02:19:43;8.90;99.90
16643;DHT22;8435;52.184;5.406;2023-12-22T02:22:13;8.90;99.90
16643;DHT22;8435;52.184;5.406;2023-12-22T02:24:41;8.90;99.90
16643;DHT22;8435;52.184;5.406;2023-12-22T02:27:22;8.90;99.90
16643;DHT22;8435;52.184;5.406;2023-12-22T02:29:52;8.90;99.90
16643;DHT22;8435;52.184;5.406;2023-12-22T02:32:25;9.00;99.90
16643;DHT22;8435;52.184;5.406;2023-12-22T02:34:55;9.00;99.90
16643;DHT22;8435;52.184;5.406;2023-12-22T02:37:23;9.10;99.90
16643;DHT22;8435;52.184;5.406;2023-12-22T02:39:52;9.10;99.90
16643;DHT22;8435;52.184;5.406;2023-12-22T02:42:19;9.10;99.90
16643;DHT22;8435;52.184;5.406;2023-12-22T02:44:48;9.10;99.90
16643;DHT22;8435;52.184;5.406;2023-12-22T02:47:15;9.10;99.90
16643;DHT22;8435;52.184;5.406;2023-12-22T02:49:42;9.20;99.90
16643;DHT22;8435;52.184;5.406;2023-12-22T02:52:09;9.20;99.90
16643;DHT22;8435;52.184;5.406;2023-12-22T02:54:35;9.20;99.90
16643;DHT22;8435;52.184;5.406;2023-12-22T02:57:08;9.30;99.90
16643;DHT22;8435;52.184;5.406;2023-12-22T02:59:36;9.30;99.90
16643;DHT22;8435;52.184;5.406;2023-12-22T03:02:05;9.30;99.90
16643;DHT22;8435;52.184;5.406;2023-12-22T03:04:31;9.40;99.90
16643;DHT22;8435;52.184;5.406;2023-12-22T03:09:44;9.60;99.90
16643;DHT22;8435;52.184;5.406;2023-12-22T03:12:12;9.60;99.90
16643;DHT22;8435;52.184;5.406;2023-12-22T03:14:39;9.70;99.90
16643;DHT22;8435;52.184;5.406;2023-12-22T03:17:09;9.80;99.90
16643;DHT22;8435;52.184;5.406;2023-12-22T03:19:36;9.80;99.90
16643;DHT22;8435;52.184;5.406;2023-12-22T03:22:03;9.80;99.90
16643;DHT22;8435;52.184;5.406;2023-12-22T03:24:30;9.70;99.90
16643;DHT22;8435;52.184;5.406;2023-12-22T03:26:56;9.70;99.90
16643;DHT22;8435;52.184;5.406;2023-12-22T03:29:25;9.60;99.90
16643;DHT22;8435;52.184;5.406;2023-12-22T03:31:51;9.60;99.90
16643;DHT22;8435;52.184;5.406;2023-12-22T03:34:18;9.60;99.90
16643;DHT22;8435;52.184;5.406;2023-12-22T03:36:45;9.50;99.90
16643;DHT22;8435;52.184;5.406;2023-12-22T03:39:14;9.50;99.90
16643;DHT22;8435;52.184;5.406;2023-12-22T03:41:40;9.50;99.90
16643;DHT22;8435;52.184;5.406;2023-12-22T03:44:07;9.50;99.90
16643;DHT22;8435;52.184;5.406;2023-12-22T03:46:35;9.40;99.90
16643;DHT22;8435;52.184;5.406;2023-12-22T03:49:02;9.30;99.90
16643;DHT22;8435;52.184;5.406;2023-12-22T03:51:29;9.20;99.90
16643;DHT22;8435;52.184;5.406;2023-12-22T03:53:56;9.10;99.90
16643;DHT22;8435;52.184;5.406;2023-12-22T03:56:22;9.00;99.90
16643;DHT22;8435;52.184;5.406;2023-12-22T03:58:49;8.90;99.90
16643;DHT22;8435;52.184;5.406;2023-12-22T04:01:16;8.80;99.90
16643;DHT22;8435;52.184;5.406;2023-12-22T04:03:44;8.80;99.90
16643;DHT22;8435;52.184;5.406;2023-12-22T04:06:11;8.80;99.90
16643;DHT22;8435;52.184;5.406;2023-12-22T04:08:37;8.70;99.90
16643;DHT22;8435;52.184;5.406;2023-12-22T04:11:04;8.70;99.90
16643;DHT22;8435;52.184;5.406;2023-12-22T04:13:31;8.70;99.90
16643;DHT22;8435;52.184;5.406;2023-12-22T04:15:58;8.70;99.90
16643;DHT22;8435;52.184;5.406;2023-12-22T04:18:24;8.70;99.90
16643;DHT22;8435;52.184;5.406;2023-12-22T04:20:53;8.80;99.90
16643;DHT22;8435;52.184;5.406;2023-12-22T04:23:20;8.80;99.90
16643;DHT22;8435;52.184;5.406;2023-12-22T04:25:47;8.80;99.90
16643;DHT22;8435;52.184;5.406;2023-12-22T04:28:14;8.80;99.90
16643;DHT22;8435;52.184;5.406;2023-12-22T04:30:46;8.80;99.90
16643;DHT22;8435;52.184;5.406;2023-12-22T04:33:13;8.80;99.90
16643;DHT22;8435;52.184;5.406;2023-12-22T04:35:40;8.80;99.90
16643;DHT22;8435;52.184;5.406;2023-12-22T04:38:08;8.80;99.90
16643;DHT22;8435;52.184;5.406;2023-12-22T04:40:35;8.80;99.90
16643;DHT22;8435;52.184;5.406;2023-12-22T04:43:01;8.90;99.90
16643;DHT22;8435;52.184;5.406;2023-12-22T04:45:28;8.80;99.90
16643;DHT22;8435;52.184;5.406;2023-12-22T04:47:55;8.90;99.90
16643;DHT22;8435;52.184;5.406;2023-12-22T04:50:22;8.90;99.90
16643;DHT22;8435;52.184;5.406;2023-12-22T04:52:49;8.90;99.90
16643;DHT22;8435;52.184;5.406;2023-12-22T04:55:17;8.90;99.90
16643;DHT22;8435;52.184;5.406;2023-12-22T04:57:46;9.00;99.90
16643;DHT22;8435;52.184;5.406;2023-12-22T05:00:13;9.00;99.90
16643;DHT22;8435;52.184;5.406;2023-12-22T05:02:40;8.90;99.90
16643;DHT22;8435;52.184;5.406;2023-12-22T05:05:07;9.00;99.90
16643;DHT22;8435;52.184;5.406;2023-12-22T05:07:36;9.00;99.90
16643;DHT22;8435;52.184;5.406;2023-12-22T05:10:03;9.00;99.90
16643;DHT22;8435;52.184;5.406;2023-12-22T05:12:31;9.00;99.90
16643;DHT22;8435;52.184;5.406;2023-12-22T05:14:58;9.00;99.90
16643;DHT22;8435;52.184;5.406;2023-12-22T05:17:25;9.00;99.90
16643;DHT22;8435;52.184;5.406;2023-12-22T05:19:51;9.10;99.90
16643;DHT22;8435;52.184;5.406;2023-12-22T05:22:18;9.10;99.90
16643;DHT22;8435;52.184;5.406;2023-12-22T05:24:45;9.00;99.90
16643;DHT22;8435;52.184;5.406;2023-12-22T05:27:12;9.10;99.90
16643;DHT22;8435;52.184;5.406;2023-12-22T05:29:41;9.00;99.90
16643;DHT22;8435;52.184;5.406;2023-12-22T05:32:08;9.00;99.90
16643;DHT22;8435;52.184;5.406;2023-12-22T05:34:34;9.10;99.90
16643;DHT22;8435;52.184;5.406;2023-12-22T05:37:02;9.10;99.90
16643;DHT22;8435;52.184;5.406;2023-12-22T05:39:28;9.10;99.90
16643;DHT22;8435;52.184;5.406;2023-12-22T05:41:57;9.10;99.90
16643;DHT22;8435;52.184;5.406;2023-12-22T05:44:23;9.10;99.90
16643;DHT22;8435;52.184;5.406;2023-12-22T05:46:56;9.20;99.90
16643;DHT22;8435;52.184;5.406;2023-12-22T05:49:23;9.30;99.90
16643;DHT22;8435;52.184;5.406;2023-12-22T05:51:51;9.40;99.90
16643;DHT22;8435;52.184;5.406;2023-12-22T05:54:17;9.50;99.90
16643;DHT22;8435;52.184;5.406;2023-12-22T05:56:44;9.50;99.90
16643;DHT22;8435;52.184;5.406;2023-12-22T05:59:10;9.60;99.90
16643;DHT22;8435;52.184;5.406;2023-12-22T06:01:37;9.70;99.90
16643;DHT22;8435;52.184;5.406;2023-12-22T06:04:05;9.80;99.90
16643;DHT22;8435;52.184;5.406;2023-12-22T06:06:32;9.80;99.90
16643;DHT22;8435;52.184;5.406;2023-12-22T06:08:59;9.90;99.90
16643;DHT22;8435;52.184;5.406;2023-12-22T06:11:25;10.00;99.90
16643;DHT22;8435;52.184;5.406;2023-12-22T06:13:52;10.00;99.90
16643;DHT22;8435;52.184;5.406;2023-12-22T06:16:20;10.00;99.90
16643;DHT22;8435;52.184;5.406;2023-12-22T06:18:49;10.00;99.90
16643;DHT22;8435;52.184;5.406;2023-12-22T06:21:17;10.10;99.90
16643;DHT22;8435;52.184;5.406;2023-12-22T06:23:44;10.10;99.90
16643;DHT22;8435;52.184;5.406;2023-12-22T06:26:11;10.20;99.90
16643;DHT22;8435;52.184;5.406;2023-12-22T06:28:38;10.10;99.90
16643;DHT22;8435;52.184;5.406;2023-12-22T06:31:05;10.20;99.90
16643;DHT22;8435;52.184;5.406;2023-12-22T06:33:35;10.30;99.90
16643;DHT22;8435;52.184;5.406;2023-12-22T06:36:02;10.40;99.90
16643;DHT22;8435;52.184;5.406;2023-12-22T06:38:31;10.40;99.90
16643;DHT22;8435;52.184;5.406;2023-12-22T06:41:04;10.40;99.90
16643;DHT22;8435;52.184;5.406;2023-12-22T06:43:31;10.40;99.90
16643;DHT22;8435;52.184;5.406;2023-12-22T06:45:59;10.50;99.90
16643;DHT22;8435;52.184;5.406;2023-12-22T06:48:25;10.50;99.90
16643;DHT22;8435;52.184;5.406;2023-12-22T06:50:53;10.50;99.90
16643;DHT22;8435;52.184;5.406;2023-12-22T06:53:20;10.50;99.90
16643;DHT22;8435;52.184;5.406;2023-12-22T06:55:48;10.50;99.90
16643;DHT22;8435;52.184;5.406;2023-12-22T06:58:14;10.60;99.90
16643;DHT22;8435;52.184;5.406;2023-12-22T07:00:41;10.60;99.90
16643;DHT22;8435;52.184;5.406;2023-12-22T07:03:08;10.70;99.90
16643;DHT22;8435;52.184;5.406;2023-12-22T07:05:35;10.60;99.90
16643;DHT22;8435;52.184;5.406;2023-12-22T07:08:06;10.60;99.90
16643;DHT22;8435;52.184;5.406;2023-12-22T07:10:33;10.70;99.90
16643;DHT22;8435;52.184;5.406;2023-12-22T07:13:06;10.80;99.90
16643;DHT22;8435;52.184;5.406;2023-12-22T07:15:33;10.80;99.90
16643;DHT22;8435;52.184;5.406;2023-12-22T07:18:00;10.80;99.90
16643;DHT22;8435;52.184;5.406;2023-12-22T07:20:30;10.80;99.90
16643;DHT22;8435;52.184;5.406;2023-12-22T07:22:56;10.90;99.90
16643;DHT22;8435;52.184;5.406;2023-12-22T07:25:23;10.90;99.90
16643;DHT22;8435;52.184;5.406;2023-12-22T07:27:50;10.90;99.90
16643;DHT22;8435;52.184;5.406;2023-12-22T07:30:18;10.90;99.90
16643;DHT22;8435;52.184;5.406;2023-12-22T07:32:45;11.00;99.90
16643;DHT22;8435;52.184;5.406;2023-12-22T07:35:14;11.00;99.90
16643;DHT22;8435;52.184;5.406;2023-12-22T07:37:41;11.00;99.90
16643;DHT22;8435;52.184;5.406;2023-12-22T07:40:09;11.10;99.90
16643;DHT22;8435;52.184;5.406;2023-12-22T07:42:36;11.10;99.90
16643;DHT22;8435;52.184;5.406;2023-12-22T07:45:04;11.10;99.90
16643;DHT22;8435;52.184;5.406;2023-12-22T07:47:34;11.10;99.90
16643;DHT22;8435;52.184;5.406;2023-12-22T07:50:02;11.10;99.90
16643;DHT22;8435;52.184;5.406;2023-12-22T07:52:33;11.10;99.90
16643;DHT22;8435;52.184;5.406;2023-12-22T07:55:05;11.10;99.90
16643;DHT22;8435;52.184;5.406;2023-12-22T07:57:32;11.10;99.90
16643;DHT22;8435;52.184;5.406;2023-12-22T07:59:58;11.10;99.90
16643;DHT22;8435;52.184;5.406;2023-12-22T08:02:25;11.10;99.90
16643;DHT22;8435;52.184;5.406;2023-12-22T08:04:53;11.10;99.90
16643;DHT22;8435;52.184;5.406;2023-12-22T08:07:20;11.00;99.90
16643;DHT22;8435;52.184;5.406;2023-12-22T08:09:47;11.00;99.90
16643;DHT22;8435;52.184;5.406;2023-12-22T08:12:14;10.90;99.90
16643;DHT22;8435;52.184;5.406;2023-12-22T08:14:41;10.90;99.90
16643;DHT22;8435;52.184;5.406;2023-12-22T08:17:07;10.90;99.90
16643;DHT22;8435;52.184;5.406;2023-12-22T08:19:36;10.90;99.90
16643;DHT22;8435;52.184;5.406;2023-12-22T08:22:07;10.90;99.90
16643;DHT22;8435;52.184;5.406;2023-12-22T08:24:48;10.90;99.90
16643;DHT22;8435;52.184;5.406;2023-12-22T08:27:17;10.80;99.90
16643;DHT22;8435;52.184;5.406;2023-12-22T08:29:44;10.80;99.90
16643;DHT22;8435;52.184;5.406;2023-12-22T08:32:12;10.80;99.90
16643;DHT22;8435;52.184;5.406;2023-12-22T08:34:39;10.80;99.90
16643;DHT22;8435;52.184;5.406;2023-12-22T08:37:07;10.80;99.90
16643;DHT22;8435;52.184;5.406;2023-12-22T08:39:34;10.80;99.90
16643;DHT22;8435;52.184;5.406;2023-12-22T08:42:01;10.90;99.90
16643;DHT22;8435;52.184;5.406;2023-12-22T08:44:27;10.90;99.90
16643;DHT22;8435;52.184;5.406;2023-12-22T08:46:54;10.90;99.90
16643;DHT22;8435;52.184;5.406;2023-12-22T08:49:21;10.90;99.90
16643;DHT22;8435;52.184;5.406;2023-12-22T08:51:48;11.00;99.90
16643;DHT22;8435;52.184;5.406;2023-12-22T08:54:16;11.00;99.90
16643;DHT22;8435;52.184;5.406;2023-12-22T08:56:43;11.10;99.90
16643;DHT22;8435;52.184;5.406;2023-12-22T08:59:10;11.10;99.90
16643;DHT22;8435;52.184;5.406;2023-12-22T09:01:36;11.10;99.90
16643;DHT22;8435;52.184;5.406;2023-12-22T09:04:03;11.20;99.90
16643;DHT22;8435;52.184;5.406;2023-12-22T09:06:30;11.20;99.90
16643;DHT22;8435;52.184;5.406;2023-12-22T09:08:57;11.20;99.90
16643;DHT22;8435;52.184;5.406;2023-12-22T09:11:25;11.30;99.90
16643;DHT22;8435;52.184;5.406;2023-12-22T09:13:52;11.30;99.90
16643;DHT22;8435;52.184;5.406;2023-12-22T09:16:24;11.30;99.90
16643;DHT22;8435;52.184;5.406;2023-12-22T09:18:54;11.40;99.90
16643;DHT22;8435;52.184;5.406;2023-12-22T09:21:20;11.40;99.90
16643;DHT22;8435;52.184;5.406;2023-12-22T09:23:47;11.40;99.90
16643;DHT22;8435;52.184;5.406;2023-12-22T09:26:15;11.50;99.90
16643;DHT22;8435;52.184;5.406;2023-12-22T09:28:44;11.50;99.90
16643;DHT22;8435;52.184;5.406;2023-12-22T09:31:11;11.50;99.90
16643;DHT22;8435;52.184;5.406;2023-12-22T09:33:40;11.50;99.90
16643;DHT22;8435;52.184;5.406;2023-12-22T09:36:07;11.50;99.90
16643;DHT22;8435;52.184;5.406;2023-12-22T09:38:34;11.50;99.90
16643;DHT22;8435;52.184;5.406;2023-12-22T09:41:02;11.50;99.90
16643;DHT22;8435;52.184;5.406;2023-12-22T09:43:29;11.60;99.90
16643;DHT22;8435;52.184;5.406;2023-12-22T09:45:59;11.50;99.90
16643;DHT22;8435;52.184;5.406;2023-12-22T09:48:27;11.50;99.90
16643;DHT22;8435;52.184;5.406;2023-12-22T09:50:54;11.50;99.90
16643;DHT22;8435;52.184;5.406;2023-12-22T09:53:24;11.50;99.90
16643;DHT22;8435;52.184;5.406;2023-12-22T09:55:53;11.30;99.90
16643;DHT22;8435;52.184;5.406;2023-12-22T09:58:21;11.40;99.90
16643;DHT22;8435;52.184;5.406;2023-12-22T10:00:48;11.40;99.90
16643;DHT22;8435;52.184;5.406;2023-12-22T10:03:19;11.40;99.90
16643;DHT22;8435;52.184;5.406;2023-12-22T10:05:47;11.40;99.90
16643;DHT22;8435;52.184;5.406;2023-12-22T10:08:14;11.40;99.90
16643;DHT22;8435;52.184;5.406;2023-12-22T10:10:46;11.50;99.90
16643;DHT22;8435;52.184;5.406;2023-12-22T10:13:13;11.50;99.90
16643;DHT22;8435;52.184;5.406;2023-12-22T10:15:43;11.60;99.90
16643;DHT22;8435;52.184;5.406;2023-12-22T10:18:10;11.60;99.90
16643;DHT22;8435;52.184;5.406;2023-12-22T10:20:45;11.70;99.90
16643;DHT22;8435;52.184;5.406;2023-12-22T10:23:15;11.70;99.90
16643;DHT22;8435;52.184;5.406;2023-12-22T10:25:41;11.80;99.90
16643;DHT22;8435;52.184;5.406;2023-12-22T10:28:10;11.90;99.90
16643;DHT22;8435;52.184;5.406;2023-12-22T10:30:40;11.90;99.90
16643;DHT22;8435;52.184;5.406;2023-12-22T10:33:07;12.00;99.90
16643;DHT22;8435;52.184;5.406;2023-12-22T10:35:33;12.10;99.90
16643;DHT22;8435;52.184;5.406;2023-12-22T10:38:05;12.20;99.90
16643;DHT22;8435;52.184;5.406;2023-12-22T10:40:31;12.20;99.90
16643;DHT22;8435;52.184;5.406;2023-12-22T10:42:59;12.20;99.90
16643;DHT22;8435;52.184;5.406;2023-12-22T10:45:27;12.30;99.90
16643;DHT22;8435;52.184;5.406;2023-12-22T10:47:59;12.30;99.90
16643;DHT22;8435;52.184;5.406;2023-12-22T10:50:28;12.30;99.90
16643;DHT22;8435;52.184;5.406;2023-12-22T10:52:57;12.30;99.90
16643;DHT22;8435;52.184;5.406;2023-12-22T10:55:25;12.30;99.90
16643;DHT22;8435;52.184;5.406;2023-12-22T10:57:53;12.40;99.90
16643;DHT22;8435;52.184;5.406;2023-12-22T11:00:20;12.40;99.90
16643;DHT22;8435;52.184;5.406;2023-12-22T11:02:48;12.40;99.90
16643;DHT22;8435;52.184;5.406;2023-12-22T11:05:15;12.40;99.90
16643;DHT22;8435;52.184;5.406;2023-12-22T11:07:48;12.40;99.90
16643;DHT22;8435;52.184;5.406;2023-12-22T11:10:19;12.40;99.90
16643;DHT22;8435;52.184;5.406;2023-12-22T11:12:48;12.50;99.90
16643;DHT22;8435;52.184;5.406;2023-12-22T11:15:15;12.50;99.90
16643;DHT22;8435;52.184;5.406;2023-12-22T11:17:43;12.50;99.90
16643;DHT22;8435;52.184;5.406;2023-12-22T11:20:12;12.50;99.90
16643;DHT22;8435;52.184;5.406;2023-12-22T11:22:43;12.60;99.90
16643;DHT22;8435;52.184;5.406;2023-12-22T11:25:10;12.50;99.90
16643;DHT22;8435;52.184;5.406;2023-12-22T11:27:37;12.60;99.90
16643;DHT22;8435;52.184;5.406;2023-12-22T11:30:08;12.60;99.90
16643;DHT22;8435;52.184;5.406;2023-12-22T11:32:35;12.60;99.90
16643;DHT22;8435;52.184;5.406;2023-12-22T11:35:02;12.60;99.90
16643;DHT22;8435;52.184;5.406;2023-12-22T11:37:31;12.70;99.90
16643;DHT22;8435;52.184;5.406;2023-12-22T11:39:58;12.70;99.90
16643;DHT22;8435;52.184;5.406;2023-12-22T11:42:27;12.70;99.90
16643;DHT22;8435;52.184;5.406;2023-12-22T11:44:57;12.70;99.90
16643;DHT22;8435;52.184;5.406;2023-12-22T11:47:25;12.70;99.90
16643;DHT22;8435;52.184;5.406;2023-12-22T11:49:53;12.70;99.90
16643;DHT22;8435;52.184;5.406;2023-12-22T11:52:25;12.70;99.90
16643;DHT22;8435;52.184;5.406;2023-12-22T11:54:54;12.70;99.90
16643;DHT22;8435;52.184;5.406;2023-12-22T11:57:35;12.80;99.90
16643;DHT22;8435;52.184;5.406;2023-12-22T12:00:06;12.70;99.90
16643;DHT22;8435;52.184;5.406;2023-12-22T12:02:34;12.70;99.90
16643;DHT22;8435;52.184;5.406;2023-12-22T12:05:04;12.70;99.90
16643;DHT22;8435;52.184;5.406;2023-12-22T12:07:38;12.70;99.90
16643;DHT22;8435;52.184;5.406;2023-12-22T12:10:06;12.60;99.90
16643;DHT22;8435;52.184;5.406;2023-12-22T12:12:33;12.70;99.90
16643;DHT22;8435;52.184;5.406;2023-12-22T12:15:07;12.70;99.90
16643;DHT22;8435;52.184;5.406;2023-12-22T12:17:38;12.70;99.90
16643;DHT22;8435;52.184;5.406;2023-12-22T12:20:07;12.70;99.90
16643;DHT22;8435;52.184;5.406;2023-12-22T12:22:35;12.70;99.90
16643;DHT22;8435;52.184;5.406;2023-12-22T12:25:06;12.80;99.90
16643;DHT22;8435;52.184;5.406;2023-12-22T12:27:34;12.80;99.90
16643;DHT22;8435;52.184;5.406;2023-12-22T12:30:10;12.80;99.90
16643;DHT22;8435;52.184;5.406;2023-12-22T12:32:39;12.80;99.90
16643;DHT22;8435;52.184;5.406;2023-12-22T12:35:10;12.90;99.90
16643;DHT22;8435;52.184;5.406;2023-12-22T12:37:42;12.90;99.90
16643;DHT22;8435;52.184;5.406;2023-12-22T12:40:11;12.90;99.90
16643;DHT22;8435;52.184;5.406;2023-12-22T12:42:38;13.00;99.90
16643;DHT22;8435;52.184;5.406;2023-12-22T12:45:06;13.00;99.90
16643;DHT22;8435;52.184;5.406;2023-12-22T12:47:34;13.00;99.90
16643;DHT22;8435;52.184;5.406;2023-12-22T12:50:02;13.10;99.90
16643;DHT22;8435;52.184;5.406;2023-12-22T12:52:29;13.10;99.90
16643;DHT22;8435;52.184;5.406;2023-12-22T12:54:56;13.10;99.90
16643;DHT22;8435;52.184;5.406;2023-12-22T12:57:24;13.10;99.90
16643;DHT22;8435;52.184;5.406;2023-12-22T12:59:51;13.10;99.90
16643;DHT22;8435;52.184;5.406;2023-12-22T13:02:18;13.10;99.90
16643;DHT22;8435;52.184;5.406;2023-12-22T13:04:52;13.20;99.90
16643;DHT22;8435;52.184;5.406;2023-12-22T13:07:26;13.20;99.90
16643;DHT22;8435;52.184;5.406;2023-12-22T13:09:53;13.30;99.90
16643;DHT22;8435;52.184;5.406;2023-12-22T13:12:22;13.30;99.90
16643;DHT22;8435;52.184;5.406;2023-12-22T13:14:51;13.30;99.90
16643;DHT22;8435;52.184;5.406;2023-12-22T13:17:18;13.30;99.90
16643;DHT22;8435;52.184;5.406;2023-12-22T13:19:45;13.30;99.90
16643;DHT22;8435;52.184;5.406;2023-12-22T13:22:12;13.20;99.90
16643;DHT22;8435;52.184;5.406;2023-12-22T13:24:41;13.30;99.90
16643;DHT22;8435;52.184;5.406;2023-12-22T13:27:07;13.30;99.90
16643;DHT22;8435;52.184;5.406;2023-12-22T13:29:44;13.30;99.90
16643;DHT22;8435;52.184;5.406;2023-12-22T13:32:17;13.30;99.90
16643;DHT22;8435;52.184;5.406;2023-12-22T13:34:49;13.30;99.90
16643;DHT22;8435;52.184;5.406;2023-12-22T13:37:16;13.30;99.90
16643;DHT22;8435;52.184;5.406;2023-12-22T13:39:48;13.20;99.90
16643;DHT22;8435;52.184;5.406;2023-12-22T13:42:16;13.30;99.90
16643;DHT22;8435;52.184;5.406;2023-12-22T13:44:45;13.30;99.90
16643;DHT22;8435;52.184;5.406;2023-12-22T13:47:15;13.30;99.90
16643;DHT22;8435;52.184;5.406;2023-12-22T13:49:42;13.30;99.90
16643;DHT22;8435;52.184;5.406;2023-12-22T13:52:24;13.30;99.90
16643;DHT22;8435;52.184;5.406;2023-12-22T13:54:53;13.30;99.90
16643;DHT22;8435;52.184;5.406;2023-12-22T13:57:22;13.30;99.90
16643;DHT22;8435;52.184;5.406;2023-12-22T13:59:48;13.40;99.90
16643;DHT22;8435;52.184;5.406;2023-12-22T14:02:19;13.30;99.90
16643;DHT22;8435;52.184;5.406;2023-12-22T14:04:47;13.40;99.90
16643;DHT22;8435;52.184;5.406;2023-12-22T14:07:17;13.40;99.90
16643;DHT22;8435;52.184;5.406;2023-12-22T14:09:44;13.30;99.90
16643;DHT22;8435;52.184;5.406;2023-12-22T14:12:12;13.40;99.90
16643;DHT22;8435;52.184;5.406;2023-12-22T14:14:39;13.20;99.90
16643;DHT22;8435;52.184;5.406;2023-12-22T14:17:05;13.20;99.90
16643;DHT22;8435;52.184;5.406;2023-12-22T14:19:32;13.20;99.90
16643;DHT22;8435;52.184;5.406;2023-12-22T14:21:59;13.10;99.90
16643;DHT22;8435;52.184;5.406;2023-12-22T14:24:26;13.10;99.90
16643;DHT22;8435;52.184;5.406;2023-12-22T14:26:53;13.10;99.90
16643;DHT22;8435;52.184;5.406;2023-12-22T14:29:21;13.10;99.90
16643;DHT22;8435;52.184;5.406;2023-12-22T14:31:49;13.10;99.90
16643;DHT22;8435;52.184;5.406;2023-12-22T14:34:16;13.00;99.90
16643;DHT22;8435;52.184;5.406;2023-12-22T14:36:42;13.00;99.90
16643;DHT22;8435;52.184;5.406;2023-12-22T14:39:10;13.00;99.90
16643;DHT22;8435;52.184;5.406;2023-12-22T14:41:39;13.10;99.90
16643;DHT22;8435;52.184;5.406;2023-12-22T14:44:05;13.10;99.90
16643;DHT22;8435;52.184;5.406;2023-12-22T14:46:38;13.10;99.90
16643;DHT22;8435;52.184;5.406;2023-12-22T14:49:05;13.10;99.90
16643;DHT22;8435;52.184;5.406;2023-12-22T14:51:37;13.10;99.90
16643;DHT22;8435;52.184;5.406;2023-12-22T14:54:05;13.10;99.90
16643;DHT22;8435;52.184;5.406;2023-12-22T14:56:31;13.10;99.90
16643;DHT22;8435;52.184;5.406;2023-12-22T14:58:59;13.10;99.90
16643;DHT22;8435;52.184;5.406;2023-12-22T15:01:25;13.10;99.90
16643;DHT22;8435;52.184;5.406;2023-12-22T15:03:54;13.00;99.90
16643;DHT22;8435;52.184;5.406;2023-12-22T15:06:21;13.00;99.90
16643;DHT22;8435;52.184;5.406;2023-12-22T15:08:47;13.00;99.90
16643;DHT22;8435;52.184;5.406;2023-12-22T15:11:15;13.00;99.90
16643;DHT22;8435;52.184;5.406;2023-12-22T15:13:41;13.00;99.90
16643;DHT22;8435;52.184;5.406;2023-12-22T15:16:09;13.00;99.90
16643;DHT22;8435;52.184;5.406;2023-12-22T15:18:35;13.00;99.90
16643;DHT22;8435;52.184;5.406;2023-12-22T15:21:03;13.00;99.90
16643;DHT22;8435;52.184;5.406;2023-12-22T15:23:30;13.00;99.90
16643;DHT22;8435;52.184;5.406;2023-12-22T15:25:57;13.00;99.90
16643;DHT22;8435;52.184;5.406;2023-12-22T15:28:26;13.00;99.90
16643;DHT22;8435;52.184;5.406;2023-12-22T15:30:53;13.00;99.90
16643;DHT22;8435;52.184;5.406;2023-12-22T15:33:23;13.00;99.90
16643;DHT22;8435;52.184;5.406;2023-12-22T15:35:54;13.00;99.90
16643;DHT22;8435;52.184;5.406;2023-12-22T15:38:22;13.00;99.90
16643;DHT22;8435;52.184;5.406;2023-12-22T15:40:49;13.10;99.90
16643;DHT22;8435;52.184;5.406;2023-12-22T15:43:16;13.10;99.90
16643;DHT22;8435;52.184;5.406;2023-12-22T15:45:43;13.10;99.90
16643;DHT22;8435;52.184;5.406;2023-12-22T15:48:10;13.10;99.90
16643;DHT22;8435;52.184;5.406;2023-12-22T15:50:39;13.10;99.90
16643;DHT22;8435;52.184;5.406;2023-12-22T15:53:06;13.10;99.90
16643;DHT22;8435;52.184;5.406;2023-12-22T15:55:34;13.10;99.90
16643;DHT22;8435;52.184;5.406;2023-12-22T15:58:00;13.00;99.90
16643;DHT22;8435;52.184;5.406;2023-12-22T16:00:30;13.00;99.90